sensor_id;sensor_type;location;lat;lon;timestamp;temperature;humidity
3628;DHT22;1830;49.000;12.074;2023-08-01T00:01:02;17.80;99.90
3628;DHT22;1830;49.000;12.074;2023-08-01T00:03:31;17.80;99.90
3628;DHT22;1830;49.000;12.074;2023-08-01T00:05:58;17.80;99.90
3628;DHT22;1830;49.000;12.074;2023-08-01T00:08:25;17.80;99.90
3628;DHT22;1830;49.000;12.074;2023-08-01T00:10:52;17.80;99.90
3628;DHT22;1830;49.000;12.074;2023-08-01T00:13:18;17.70;99.90
3628;DHT22;1830;49.000;12.074;2023-08-01T00:15:45;17.70;99.90
3628;DHT22;1830;49.000;12.074;2023-08-01T00:18:12;17.60;99.90
3628;DHT22;1830;49.000;12.074;2023-08-01T00:20:40;17.70;99.90
3628;DHT22;1830;49.000;12.074;2023-08-01T00:23:06;17.70;99.90
3628;DHT22;1830;49.000;12.074;2023-08-01T00:25:33;17.60;99.90
3628;DHT22;1830;49.000;12.074;2023-08-01T00:28:00;17.70;99.90
3628;DHT22;1830;49.000;12.074;2023-08-01T00:30:27;17.70;99.90
3628;DHT22;1830;49.000;12.074;2023-08-01T00:32:53;17.60;99.90
3628;DHT22;1830;49.000;12.074;2023-08-01T00:35:20;17.60;99.90
3628;DHT22;1830;49.000;12.074;2023-08-01T00:37:48;17.50;99.90
3628;DHT22;1830;49.000;12.074;2023-08-01T00:40:15;17.50;99.90
3628;DHT22;1830;49.000;12.074;2023-08-01T00:42:43;17.50;99.90
3628;DHT22;1830;49.000;12.074;2023-08-01T00:45:10;17.50;99.90
3628;DHT22;1830;49.000;12.074;2023-08-01T00:47:38;17.50;99.90
3628;DHT22;1830;49.000;12.074;2023-08-01T00:50:06;17.50;99.90
3628;DHT22;1830;49.000;12.074;2023-08-01T00:52:33;17.50;99.90
3628;DHT22;1830;49.000;12.074;2023-08-01T00:55:01;17.50;99.90
3628;DHT22;1830;49.000;12.074;2023-08-01T00:57:29;17.50;99.90
3628;DHT22;1830;49.000;12.074;2023-08-01T00:59:56;17.50;99.90
3628;DHT22;1830;49.000;12.074;2023-08-01T01:02:23;17.50;99.90
3628;DHT22;1830;49.000;12.074;2023-08-01T01:04:50;17.50;99.90
3628;DHT22;1830;49.000;12.074;2023-08-01T01:07:17;17.50;99.90
3628;DHT22;1830;49.000;12.074;2023-08-01T01:09:43;17.50;99.90
3628;DHT22;1830;49.000;12.074;2023-08-01T01:12:12;17.50;99.90
3628;DHT22;1830;49.000;12.074;2023-08-01T01:14:38;17.40;99.90
3628;DHT22;1830;49.000;12.074;2023-08-01T01:17:05;17.40;99.90
3628;DHT22;1830;49.000;12.074;2023-08-01T01:19:32;17.40;99.90
3628;DHT22;1830;49.000;12.074;2023-08-01T01:22:02;17.40;99.90
3628;DHT22;1830;49.000;12.074;2023-08-01T01:24:30;17.40;99.90
3628;DHT22;1830;49.000;12.074;2023-08-01T01:26:58;17.40;99.90
3628;DHT22;1830;49.000;12.074;2023-08-01T01:29:26;17.40;99.90
3628;DHT22;1830;49.000;12.074;2023-08-01T01:31:53;17.40;99.90
3628;DHT22;1830;49.000;12.074;2023-08-01T01:34:21;17.40;99.90
3628;DHT22;1830;49.000;12.074;2023-08-01T01:36:48;17.40;99.90
3628;DHT22;1830;49.000;12.074;2023-08-01T01:39:16;17.30;99.90
3628;DHT22;1830;49.000;12.074;2023-08-01T01:41:43;17.30;99.90
3628;DHT22;1830;49.000;12.074;2023-08-01T01:44:10;17.30;99.90
3628;DHT22;1830;49.000;12.074;2023-08-01T01:46:37;17.30;99.90
3628;DHT22;1830;49.000;12.074;2023-08-01T01:49:03;17.30;99.90
3628;DHT22;1830;49.000;12.074;2023-08-01T01:51:31;17.30;99.90
3628;DHT22;1830;49.000;12.074;2023-08-01T01:53:58;17.40;99.90
3628;DHT22;1830;49.000;12.074;2023-08-01T01:56:26;17.40;99.90
3628;DHT22;1830;49.000;12.074;2023-08-01T01:58:53;17.40;99.90
3628;DHT22;1830;49.000;12.074;2023-08-01T02:01:20;17.40;99.90
3628;DHT22;1830;49.000;12.074;2023-08-01T02:03:46;17.40;99.90
3628;DHT22;1830;49.000;12.074;2023-08-01T02:06:13;17.40;99.90
3628;DHT22;1830;49.000;12.074;2023-08-01T02:08:40;17.40;99.90
3628;DHT22;1830;49.000;12.074;2023-08-01T02:11:07;17.40;99.90
3628;DHT22;1830;49.000;12.074;2023-08-01T02:13:35;17.40;99.90
3628;DHT22;1830;49.000;12.074;2023-08-01T02:16:02;17.40;99.90
3628;DHT22;1830;49.000;12.074;2023-08-01T02:18:28;17.30;99.90
3628;DHT22;1830;49.000;12.074;2023-08-01T02:20:55;17.30;99.90
3628;DHT22;1830;49.000;12.074;2023-08-01T02:23:22;17.30;99.90
3628;DHT22;1830;49.000;12.074;2023-08-01T02:25:49;17.30;99.90
3628;DHT22;1830;49.000;12.074;2023-08-01T02:28:15;17.30;99.90
3628;DHT22;1830;49.000;12.074;2023-08-01T02:30:44;17.30;99.90
3628;DHT22;1830;49.000;12.074;2023-08-01T02:33:10;17.20;99.90
3628;DHT22;1830;49.000;12.074;2023-08-01T02:35:37;17.30;99.90
3628;DHT22;1830;49.000;12.074;2023-08-01T02:38:04;17.20;99.90
3628;DHT22;1830;49.000;12.074;2023-08-01T02:40:31;17.20;99.90
3628;DHT22;1830;49.000;12.074;2023-08-01T02:42:57;17.20;99.90
3628;DHT22;1830;49.000;12.074;2023-08-01T02:45:24;17.30;99.90
3628;DHT22;1830;49.000;12.074;2023-08-01T02:47:52;17.20;99.90
3628;DHT22;1830;49.000;12.074;2023-08-01T02:50:19;17.20;99.90
3628;DHT22;1830;49.000;12.074;2023-08-01T02:52:46;17.30;99.90
3628;DHT22;1830;49.000;12.074;2023-08-01T02:55:13;17.30;99.90
3628;DHT22;1830;49.000;12.074;2023-08-01T02:57:40;17.30;99.90
3628;DHT22;1830;49.000;12.074;2023-08-01T03:00:07;17.20;99.90
3628;DHT22;1830;49.000;12.074;2023-08-01T03:02:37;17.20;99.90
3628;DHT22;1830;49.000;12.074;2023-08-01T03:05:07;17.20;99.90
3628;DHT22;1830;49.000;12.074;2023-08-01T03:07:34;17.20;99.90
3628;DHT22;1830;49.000;12.074;2023-08-01T03:10:01;17.20;99.90
3628;DHT22;1830;49.000;12.074;2023-08-01T03:12:28;17.20;99.90
3628;DHT22;1830;49.000;12.074;2023-08-01T03:14:54;17.20;99.90
3628;DHT22;1830;49.000;12.074;2023-08-01T03:17:21;17.20;99.90
3628;DHT22;1830;49.000;12.074;2023-08-01T03:19:48;17.10;99.90
3628;DHT22;1830;49.000;12.074;2023-08-01T03:22:16;17.10;99.90
3628;DHT22;1830;49.000;12.074;2023-08-01T03:24:43;17.10;99.90
3628;DHT22;1830;49.000;12.074;2023-08-01T03:27:10;17.10;99.90
3628;DHT22;1830;49.000;12.074;2023-08-01T03:29:37;17.10;99.90
3628;DHT22;1830;49.000;12.074;2023-08-01T03:32:04;17.10;99.90
3628;DHT22;1830;49.000;12.074;2023-08-01T03:34:31;17.10;99.90
3628;DHT22;1830;49.000;12.074;2023-08-01T03:36:58;17.10;99.90
3628;DHT22;1830;49.000;12.074;2023-08-01T03:39:26;17.10;99.90
3628;DHT22;1830;49.000;12.074;2023-08-01T03:41:53;17.10;99.90
3628;DHT22;1830;49.000;12.074;2023-08-01T03:44:19;17.10;99.90
3628;DHT22;1830;49.000;12.074;2023-08-01T03:46:46;17.10;99.90
3628;DHT22;1830;49.000;12.074;2023-08-01T03:49:13;17.10;99.90
3628;DHT22;1830;49.000;12.074;2023-08-01T03:51:40;17.10;99.90
3628;DHT22;1830;49.000;12.074;2023-08-01T03:54:07;17.10;99.90
3628;DHT22;1830;49.000;12.074;2023-08-01T03:56:39;17.10;99.90
3628;DHT22;1830;49.000;12.074;2023-08-01T03:59:08;17.10;99.90
3628;DHT22;1830;49.000;12.074;2023-08-01T04:01:37;17.10;99.90
3628;DHT22;1830;49.000;12.074;2023-08-01T04:04:04;17.10;99.90
3628;DHT22;1830;49.000;12.074;2023-08-01T04:06:31;17.10;99.90
3628;DHT22;1830;49.000;12.074;2023-08-01T04:08:58;17.10;99.90
3628;DHT22;1830;49.000;12.074;2023-08-01T04:11:26;17.20;99.90
3628;DHT22;1830;49.000;12.074;2023-08-01T04:13:56;17.10;99.90
3628;DHT22;1830;49.000;12.074;2023-08-01T04:16:23;17.20;99.90
3628;DHT22;1830;49.000;12.074;2023-08-01T04:18:50;17.10;99.90
3628;DHT22;1830;49.000;12.074;2023-08-01T04:21:18;17.10;99.90
3628;DHT22;1830;49.000;12.074;2023-08-01T04:23:45;17.10;99.90
3628;DHT22;1830;49.000;12.074;2023-08-01T04:26:12;17.10;99.90
3628;DHT22;1830;49.000;12.074;2023-08-01T04:28:39;17.00;99.90
3628;DHT22;1830;49.000;12.074;2023-08-01T04:31:07;17.00;99.90
3628;DHT22;1830;49.000;12.074;2023-08-01T04:33:34;16.90;99.90
3628;DHT22;1830;49.000;12.074;2023-08-01T04:36:01;17.00;99.90
3628;DHT22;1830;49.000;12.074;2023-08-01T04:38:28;17.00;99.90
3628;DHT22;1830;49.000;12.074;2023-08-01T04:40:55;16.90;99.90
3628;DHT22;1830;49.000;12.074;2023-08-01T04:43:35;17.00;99.90
3628;DHT22;1830;49.000;12.074;2023-08-01T04:46:02;16.90;99.90
3628;DHT22;1830;49.000;12.074;2023-08-01T04:48:30;16.90;99.90
3628;DHT22;1830;49.000;12.074;2023-08-01T04:50:57;16.80;99.90
3628;DHT22;1830;49.000;12.074;2023-08-01T04:53:24;16.90;99.90
3628;DHT22;1830;49.000;12.074;2023-08-01T04:55:50;16.90;99.90
3628;DHT22;1830;49.000;12.074;2023-08-01T04:58:17;16.80;99.90
3628;DHT22;1830;49.000;12.074;2023-08-01T05:00:44;16.80;99.90
3628;DHT22;1830;49.000;12.074;2023-08-01T05:03:12;16.80;99.90
3628;DHT22;1830;49.000;12.074;2023-08-01T05:05:40;16.80;99.90
3628;DHT22;1830;49.000;12.074;2023-08-01T05:08:07;16.70;99.90
3628;DHT22;1830;49.000;12.074;2023-08-01T05:10:34;16.70;99.90
3628;DHT22;1830;49.000;12.074;2023-08-01T05:13:13;16.70;99.90
3628;DHT22;1830;49.000;12.074;2023-08-01T05:15:40;16.70;99.90
3628;DHT22;1830;49.000;12.074;2023-08-01T05:18:06;16.60;99.90
3628;DHT22;1830;49.000;12.074;2023-08-01T05:20:33;16.70;99.90
3628;DHT22;1830;49.000;12.074;2023-08-01T05:23:02;16.70;99.90
3628;DHT22;1830;49.000;12.074;2023-08-01T05:25:28;16.70;99.90
3628;DHT22;1830;49.000;12.074;2023-08-01T05:27:55;16.60;99.90
3628;DHT22;1830;49.000;12.074;2023-08-01T05:30:22;16.60;99.90
3628;DHT22;1830;49.000;12.074;2023-08-01T05:32:49;16.50;99.90
3628;DHT22;1830;49.000;12.074;2023-08-01T05:35:16;16.50;99.90
3628;DHT22;1830;49.000;12.074;2023-08-01T05:37:43;16.50;99.90
3628;DHT22;1830;49.000;12.074;2023-08-01T05:40:12;16.50;99.90
3628;DHT22;1830;49.000;12.074;2023-08-01T05:42:39;16.50;99.90
3628;DHT22;1830;49.000;12.074;2023-08-01T05:45:06;16.40;99.90
3628;DHT22;1830;49.000;12.074;2023-08-01T05:47:33;16.40;99.90
3628;DHT22;1830;49.000;12.074;2023-08-01T05:50:01;16.50;99.90
3628;DHT22;1830;49.000;12.074;2023-08-01T05:52:28;16.50;99.90
3628;DHT22;1830;49.000;12.074;2023-08-01T05:54:54;16.50;99.90
3628;DHT22;1830;49.000;12.074;2023-08-01T05:57:22;16.50;99.90
3628;DHT22;1830;49.000;12.074;2023-08-01T05:59:49;16.50;99.90
3628;DHT22;1830;49.000;12.074;2023-08-01T06:02:16;16.50;99.90
3628;DHT22;1830;49.000;12.074;2023-08-01T06:04:43;16.50;99.90
3628;DHT22;1830;49.000;12.074;2023-08-01T06:07:10;16.50;99.90
3628;DHT22;1830;49.000;12.074;2023-08-01T06:09:36;16.60;99.90
3628;DHT22;1830;49.000;12.074;2023-08-01T06:12:04;16.60;99.90
3628;DHT22;1830;49.000;12.074;2023-08-01T06:14:32;16.60;99.90
3628;DHT22;1830;49.000;12.074;2023-08-01T06:16:59;16.60;99.90
3628;DHT22;1830;49.000;12.074;2023-08-01T06:19:26;16.60;99.90
3628;DHT22;1830;49.000;12.074;2023-08-01T06:21:53;16.50;99.90
3628;DHT22;1830;49.000;12.074;2023-08-01T06:24:20;16.60;99.90
3628;DHT22;1830;49.000;12.074;2023-08-01T06:26:46;16.70;99.90
3628;DHT22;1830;49.000;12.074;2023-08-01T06:29:13;16.70;99.90
3628;DHT22;1830;49.000;12.074;2023-08-01T06:31:45;16.80;99.90
3628;DHT22;1830;49.000;12.074;2023-08-01T06:34:22;16.70;99.90
3628;DHT22;1830;49.000;12.074;2023-08-01T06:37:02;16.80;99.90
3628;DHT22;1830;49.000;12.074;2023-08-01T06:40:03;16.70;99.90
3628;DHT22;1830;49.000;12.074;2023-08-01T06:42:36;16.70;99.90
3628;DHT22;1830;49.000;12.074;2023-08-01T06:45:11;16.70;99.90
3628;DHT22;1830;49.000;12.074;2023-08-01T06:47:44;16.70;99.90
3628;DHT22;1830;49.000;12.074;2023-08-01T06:50:38;16.70;99.90
3628;DHT22;1830;49.000;12.074;2023-08-01T06:53:18;16.80;99.90
3628;DHT22;1830;49.000;12.074;2023-08-01T06:55:48;16.70;99.90
3628;DHT22;1830;49.000;12.074;2023-08-01T06:58:15;16.80;99.90
3628;DHT22;1830;49.000;12.074;2023-08-01T07:00:48;16.80;99.90
3628;DHT22;1830;49.000;12.074;2023-08-01T07:03:16;16.80;99.90
3628;DHT22;1830;49.000;12.074;2023-08-01T07:05:46;16.80;99.90
3628;DHT22;1830;49.000;12.074;2023-08-01T07:08:18;16.80;99.90
3628;DHT22;1830;49.000;12.074;2023-08-01T07:10:49;16.90;99.90
3628;DHT22;1830;49.000;12.074;2023-08-01T07:13:16;16.90;99.90
3628;DHT22;1830;49.000;12.074;2023-08-01T07:15:45;17.00;99.90
3628;DHT22;1830;49.000;12.074;2023-08-01T07:18:12;17.00;99.90
3628;DHT22;1830;49.000;12.074;2023-08-01T07:20:40;17.00;99.90
3628;DHT22;1830;49.000;12.074;2023-08-01T07:23:07;17.00;99.90
3628;DHT22;1830;49.000;12.074;2023-08-01T07:25:34;17.00;99.90
3628;DHT22;1830;49.000;12.074;2023-08-01T07:28:01;17.10;99.90
3628;DHT22;1830;49.000;12.074;2023-08-01T07:30:28;17.20;99.90
3628;DHT22;1830;49.000;12.074;2023-08-01T07:32:55;17.20;99.90
3628;DHT22;1830;49.000;12.074;2023-08-01T07:35:21;17.20;99.90
3628;DHT22;1830;49.000;12.074;2023-08-01T07:37:49;17.30;99.90
3628;DHT22;1830;49.000;12.074;2023-08-01T07:40:16;17.30;99.90
3628;DHT22;1830;49.000;12.074;2023-08-01T07:42:43;17.40;99.90
3628;DHT22;1830;49.000;12.074;2023-08-01T07:45:11;17.40;99.90
3628;DHT22;1830;49.000;12.074;2023-08-01T07:47:38;17.50;99.90
3628;DHT22;1830;49.000;12.074;2023-08-01T07:50:06;17.60;99.90
3628;DHT22;1830;49.000;12.074;2023-08-01T07:52:32;17.70;99.90
3628;DHT22;1830;49.000;12.074;2023-08-01T07:55:01;17.70;99.90
3628;DHT22;1830;49.000;12.074;2023-08-01T07:57:27;17.80;99.90
3628;DHT22;1830;49.000;12.074;2023-08-01T07:59:54;17.90;99.90
3628;DHT22;1830;49.000;12.074;2023-08-01T08:02:21;18.00;99.90
3628;DHT22;1830;49.000;12.074;2023-08-01T08:04:48;18.10;99.90
3628;DHT22;1830;49.000;12.074;2023-08-01T08:07:14;18.10;99.90
3628;DHT22;1830;49.000;12.074;2023-08-01T08:09:41;18.00;99.90
3628;DHT22;1830;49.000;12.074;2023-08-01T08:12:09;18.10;99.90
3628;DHT22;1830;49.000;12.074;2023-08-01T08:14:36;18.00;99.90
3628;DHT22;1830;49.000;12.074;2023-08-01T08:17:04;18.00;99.90
3628;DHT22;1830;49.000;12.074;2023-08-01T08:19:31;18.00;99.90
3628;DHT22;1830;49.000;12.074;2023-08-01T08:21:57;18.00;99.90
3628;DHT22;1830;49.000;12.074;2023-08-01T08:24:24;18.10;99.90
3628;DHT22;1830;49.000;12.074;2023-08-01T08:26:51;18.00;99.90
3628;DHT22;1830;49.000;12.074;2023-08-01T08:29:19;18.00;99.90
3628;DHT22;1830;49.000;12.074;2023-08-01T08:31:46;18.00;99.90
3628;DHT22;1830;49.000;12.074;2023-08-01T08:34:13;18.00;99.90
3628;DHT22;1830;49.000;12.074;2023-08-01T08:36:39;18.00;99.90
3628;DHT22;1830;49.000;12.074;2023-08-01T08:39:06;18.00;99.90
3628;DHT22;1830;49.000;12.074;2023-08-01T08:41:37;18.00;99.90
3628;DHT22;1830;49.000;12.074;2023-08-01T08:44:07;18.00;99.90
3628;DHT22;1830;49.000;12.074;2023-08-01T08:46:41;18.00;99.90
3628;DHT22;1830;49.000;12.074;2023-08-01T08:49:09;18.00;99.90
3628;DHT22;1830;49.000;12.074;2023-08-01T08:51:36;18.00;99.90
3628;DHT22;1830;49.000;12.074;2023-08-01T08:54:05;18.10;99.90
3628;DHT22;1830;49.000;12.074;2023-08-01T08:56:33;18.10;99.90
3628;DHT22;1830;49.000;12.074;2023-08-01T08:59:01;18.10;99.90
3628;DHT22;1830;49.000;12.074;2023-08-01T09:01:28;18.10;99.90
3628;DHT22;1830;49.000;12.074;2023-08-01T09:03:58;18.10;99.90
3628;DHT22;1830;49.000;12.074;2023-08-01T09:06:28;18.10;99.90
3628;DHT22;1830;49.000;12.074;2023-08-01T09:09:01;18.10;99.90
3628;DHT22;1830;49.000;12.074;2023-08-01T09:11:38;18.10;99.90
3628;DHT22;1830;49.000;12.074;2023-08-01T09:14:05;18.10;99.90
3628;DHT22;1830;49.000;12.074;2023-08-01T09:16:33;18.00;99.90
3628;DHT22;1830;49.000;12.074;2023-08-01T09:19:01;18.10;99.90
3628;DHT22;1830;49.000;12.074;2023-08-01T09:21:31;18.10;99.90
3628;DHT22;1830;49.000;12.074;2023-08-01T09:24:08;18.10;99.90
3628;DHT22;1830;49.000;12.074;2023-08-01T09:26:35;18.10;99.90
3628;DHT22;1830;49.000;12.074;2023-08-01T09:29:02;18.10;99.90
3628;DHT22;1830;49.000;12.074;2023-08-01T09:31:31;18.10;99.90
3628;DHT22;1830;49.000;12.074;2023-08-01T09:34:00;18.10;99.90
3628;DHT22;1830;49.000;12.074;2023-08-01T09:36:29;18.00;99.90
3628;DHT22;1830;49.000;12.074;2023-08-01T09:39:00;18.00;99.90
3628;DHT22;1830;49.000;12.074;2023-08-01T09:41:28;18.00;99.90
3628;DHT22;1830;49.000;12.074;2023-08-01T09:43:55;17.90;99.90
3628;DHT22;1830;49.000;12.074;2023-08-01T09:46:22;17.90;99.90
3628;DHT22;1830;49.000;12.074;2023-08-01T09:48:49;17.80;99.90
3628;DHT22;1830;49.000;12.074;2023-08-01T09:51:18;17.70;99.90
3628;DHT22;1830;49.000;12.074;2023-08-01T09:53:50;17.70;99.90
3628;DHT22;1830;49.000;12.074;2023-08-01T09:56:19;17.60;99.90
3628;DHT22;1830;49.000;12.074;2023-08-01T09:58:47;17.60;99.90
3628;DHT22;1830;49.000;12.074;2023-08-01T10:01:15;17.60;99.90
3628;DHT22;1830;49.000;12.074;2023-08-01T10:03:45;17.60;99.90
3628;DHT22;1830;49.000;12.074;2023-08-01T10:06:16;17.60;99.90
3628;DHT22;1830;49.000;12.074;2023-08-01T10:08:46;17.60;99.90
3628;DHT22;1830;49.000;12.074;2023-08-01T10:11:14;17.60;99.90
3628;DHT22;1830;49.000;12.074;2023-08-01T10:13:42;17.60;99.90
3628;DHT22;1830;49.000;12.074;2023-08-01T10:16:09;17.50;99.90
3628;DHT22;1830;49.000;12.074;2023-08-01T10:18:37;17.50;99.90
3628;DHT22;1830;49.000;12.074;2023-08-01T10:21:05;17.50;99.90
3628;DHT22;1830;49.000;12.074;2023-08-01T10:23:34;17.50;99.90
3628;DHT22;1830;49.000;12.074;2023-08-01T10:26:05;17.50;99.90
3628;DHT22;1830;49.000;12.074;2023-08-01T10:28:32;17.50;99.90
3628;DHT22;1830;49.000;12.074;2023-08-01T10:31:09;17.50;99.90
3628;DHT22;1830;49.000;12.074;2023-08-01T10:33:37;17.40;99.90
3628;DHT22;1830;49.000;12.074;2023-08-01T10:36:15;17.40;99.90
3628;DHT22;1830;49.000;12.074;2023-08-01T10:38:49;17.30;99.90
3628;DHT22;1830;49.000;12.074;2023-08-01T10:41:24;17.30;99.90
3628;DHT22;1830;49.000;12.074;2023-08-01T10:43:51;17.30;99.90
3628;DHT22;1830;49.000;12.074;2023-08-01T10:46:18;17.30;99.90
3628;DHT22;1830;49.000;12.074;2023-08-01T10:48:49;17.40;99.90
3628;DHT22;1830;49.000;12.074;2023-08-01T10:51:15;17.40;99.90
3628;DHT22;1830;49.000;12.074;2023-08-01T10:53:42;17.30;99.90
3628;DHT22;1830;49.000;12.074;2023-08-01T10:56:16;17.30;99.90
3628;DHT22;1830;49.000;12.074;2023-08-01T10:58:46;17.30;99.90
3628;DHT22;1830;49.000;12.074;2023-08-01T11:01:13;17.20;99.90
3628;DHT22;1830;49.000;12.074;2023-08-01T11:03:40;17.30;99.90
3628;DHT22;1830;49.000;12.074;2023-08-01T11:06:07;17.40;99.90
3628;DHT22;1830;49.000;12.074;2023-08-01T11:08:35;17.40;99.90
3628;DHT22;1830;49.000;12.074;2023-08-01T11:11:04;17.50;99.90
3628;DHT22;1830;49.000;12.074;2023-08-01T11:13:31;17.70;99.90
3628;DHT22;1830;49.000;12.074;2023-08-01T11:16:02;17.70;99.90
3628;DHT22;1830;49.000;12.074;2023-08-01T11:18:29;17.70;99.90
3628;DHT22;1830;49.000;12.074;2023-08-01T11:20:56;17.60;99.90
3628;DHT22;1830;49.000;12.074;2023-08-01T11:23:28;17.60;99.90
3628;DHT22;1830;49.000;12.074;2023-08-01T11:25:55;17.60;99.90
3628;DHT22;1830;49.000;12.074;2023-08-01T11:28:22;17.60;99.90
3628;DHT22;1830;49.000;12.074;2023-08-01T11:30:49;17.60;99.90
3628;DHT22;1830;49.000;12.074;2023-08-01T11:33:19;17.60;99.90
3628;DHT22;1830;49.000;12.074;2023-08-01T11:35:50;17.50;99.90
3628;DHT22;1830;49.000;12.074;2023-08-01T11:38:18;17.50;99.90
3628;DHT22;1830;49.000;12.074;2023-08-01T11:40:45;17.50;99.90
3628;DHT22;1830;49.000;12.074;2023-08-01T11:43:14;17.40;99.90
3628;DHT22;1830;49.000;12.074;2023-08-01T11:45:48;17.40;99.90
3628;DHT22;1830;49.000;12.074;2023-08-01T11:48:15;17.50;99.90
3628;DHT22;1830;49.000;12.074;2023-08-01T11:50:44;17.40;99.90
3628;DHT22;1830;49.000;12.074;2023-08-01T11:53:18;17.50;99.90
3628;DHT22;1830;49.000;12.074;2023-08-01T11:55:45;17.60;99.90
3628;DHT22;1830;49.000;12.074;2023-08-01T11:58:11;17.60;99.90
3628;DHT22;1830;49.000;12.074;2023-08-01T12:00:40;17.70;99.90
3628;DHT22;1830;49.000;12.074;2023-08-01T12:03:08;17.60;99.90
3628;DHT22;1830;49.000;12.074;2023-08-01T12:05:38;17.60;99.90
3628;DHT22;1830;49.000;12.074;2023-08-01T12:08:11;17.70;99.90
3628;DHT22;1830;49.000;12.074;2023-08-01T12:10:39;17.70;99.90
3628;DHT22;1830;49.000;12.074;2023-08-01T12:13:06;17.70;99.90
3628;DHT22;1830;49.000;12.074;2023-08-01T12:15:33;17.80;99.90
3628;DHT22;1830;49.000;12.074;2023-08-01T12:18:00;17.80;99.90
3628;DHT22;1830;49.000;12.074;2023-08-01T12:20:26;17.80;99.90
3628;DHT22;1830;49.000;12.074;2023-08-01T12:22:53;17.80;99.90
3628;DHT22;1830;49.000;12.074;2023-08-01T12:25:21;17.70;99.90
3628;DHT22;1830;49.000;12.074;2023-08-01T12:27:48;17.80;99.90
3628;DHT22;1830;49.000;12.074;2023-08-01T12:30:15;17.70;99.90
3628;DHT22;1830;49.000;12.074;2023-08-01T12:32:42;17.80;99.90
3628;DHT22;1830;49.000;12.074;2023-08-01T12:35:09;18.00;99.90
3628;DHT22;1830;49.000;12.074;2023-08-01T12:37:36;17.90;99.90
3628;DHT22;1830;49.000;12.074;2023-08-01T12:40:05;17.90;99.90
3628;DHT22;1830;49.000;12.074;2023-08-01T12:42:33;17.80;99.90
3628;DHT22;1830;49.000;12.074;2023-08-01T12:45:00;17.80;99.90
3628;DHT22;1830;49.000;12.074;2023-08-01T12:47:27;17.90;99.90
3628;DHT22;1830;49.000;12.074;2023-08-01T12:49:54;17.90;99.90
3628;DHT22;1830;49.000;12.074;2023-08-01T12:52:24;18.00;99.90
3628;DHT22;1830;49.000;12.074;2023-08-01T12:54:51;18.00;99.90
3628;DHT22;1830;49.000;12.074;2023-08-01T12:57:19;18.10;99.90
3628;DHT22;1830;49.000;12.074;2023-08-01T12:59:47;18.30;99.90
3628;DHT22;1830;49.000;12.074;2023-08-01T13:02:14;18.40;99.90
3628;DHT22;1830;49.000;12.074;2023-08-01T13:04:41;18.40;99.90
3628;DHT22;1830;49.000;12.074;2023-08-01T13:07:08;18.50;99.90
3628;DHT22;1830;49.000;12.074;2023-08-01T13:09:35;18.40;99.90
3628;DHT22;1830;49.000;12.074;2023-08-01T13:12:02;18.30;99.90
3628;DHT22;1830;49.000;12.074;2023-08-01T13:14:31;18.30;99.90
3628;DHT22;1830;49.000;12.074;2023-08-01T13:16:59;18.40;99.90
3628;DHT22;1830;49.000;12.074;2023-08-01T13:19:26;18.40;99.90
3628;DHT22;1830;49.000;12.074;2023-08-01T13:21:52;18.50;99.90
3628;DHT22;1830;49.000;12.074;2023-08-01T13:24:19;18.60;99.90
3628;DHT22;1830;49.000;12.074;2023-08-01T13:26:46;18.90;99.90
3628;DHT22;1830;49.000;12.074;2023-08-01T13:29:13;19.00;99.90
3628;DHT22;1830;49.000;12.074;2023-08-01T13:31:40;19.10;99.90
3628;DHT22;1830;49.000;12.074;2023-08-01T13:34:09;19.60;99.90
3628;DHT22;1830;49.000;12.074;2023-08-01T13:36:36;20.00;99.90
3628;DHT22;1830;49.000;12.074;2023-08-01T13:39:03;20.20;99.90
3628;DHT22;1830;49.000;12.074;2023-08-01T13:41:29;20.10;99.90
3628;DHT22;1830;49.000;12.074;2023-08-01T13:43:56;19.90;99.90
3628;DHT22;1830;49.000;12.074;2023-08-01T13:46:23;20.00;99.90
3628;DHT22;1830;49.000;12.074;2023-08-01T13:48:50;20.30;99.90
3628;DHT22;1830;49.000;12.074;2023-08-01T13:51:18;20.20;99.90
3628;DHT22;1830;49.000;12.074;2023-08-01T13:53:45;20.20;99.90
3628;DHT22;1830;49.000;12.074;2023-08-01T13:56:12;20.40;99.90
3628;DHT22;1830;49.000;12.074;2023-08-01T13:58:40;20.20;99.90
3628;DHT22;1830;49.000;12.074;2023-08-01T14:01:08;20.10;99.90
3628;DHT22;1830;49.000;12.074;2023-08-01T14:03:36;20.00;99.90
3628;DHT22;1830;49.000;12.074;2023-08-01T14:06:04;19.90;99.90
3628;DHT22;1830;49.000;12.074;2023-08-01T14:08:32;19.90;99.90
3628;DHT22;1830;49.000;12.074;2023-08-01T14:11:00;20.10;99.90
3628;DHT22;1830;49.000;12.074;2023-08-01T14:13:27;20.50;99.90
3628;DHT22;1830;49.000;12.074;2023-08-01T14:15:54;20.50;99.90
3628;DHT22;1830;49.000;12.074;2023-08-01T14:18:21;20.50;99.90
3628;DHT22;1830;49.000;12.074;2023-08-01T14:20:47;20.90;99.90
3628;DHT22;1830;49.000;12.074;2023-08-01T14:23:14;21.00;99.90
3628;DHT22;1830;49.000;12.074;2023-08-01T14:25:43;21.10;99.90
3628;DHT22;1830;49.000;12.074;2023-08-01T14:28:10;21.20;99.90
3628;DHT22;1830;49.000;12.074;2023-08-01T14:30:37;21.20;99.90
3628;DHT22;1830;49.000;12.074;2023-08-01T14:33:05;21.20;99.90
3628;DHT22;1830;49.000;12.074;2023-08-01T14:35:34;21.20;99.90
3628;DHT22;1830;49.000;12.074;2023-08-01T14:38:01;21.50;99.90
3628;DHT22;1830;49.000;12.074;2023-08-01T14:40:28;21.50;99.90
3628;DHT22;1830;49.000;12.074;2023-08-01T14:42:57;21.50;99.90
3628;DHT22;1830;49.000;12.074;2023-08-01T14:45:23;21.50;99.90
3628;DHT22;1830;49.000;12.074;2023-08-01T14:47:50;21.50;99.90
3628;DHT22;1830;49.000;12.074;2023-08-01T14:50:17;21.60;99.90
3628;DHT22;1830;49.000;12.074;2023-08-01T14:52:44;21.50;99.90
3628;DHT22;1830;49.000;12.074;2023-08-01T14:55:11;21.40;99.90
3628;DHT22;1830;49.000;12.074;2023-08-01T14:57:38;21.40;99.90
3628;DHT22;1830;49.000;12.074;2023-08-01T15:00:07;21.20;99.90
3628;DHT22;1830;49.000;12.074;2023-08-01T15:02:35;20.70;99.90
3628;DHT22;1830;49.000;12.074;2023-08-01T15:05:02;20.50;99.90
3628;DHT22;1830;49.000;12.074;2023-08-01T15:07:29;20.20;99.90
3628;DHT22;1830;49.000;12.074;2023-08-01T15:09:56;19.90;99.90
3628;DHT22;1830;49.000;12.074;2023-08-01T15:12:23;19.70;99.90
3628;DHT22;1830;49.000;12.074;2023-08-01T15:14:51;19.70;99.90
3628;DHT22;1830;49.000;12.074;2023-08-01T15:17:20;19.60;99.90
3628;DHT22;1830;49.000;12.074;2023-08-01T15:19:46;19.70;99.90
3628;DHT22;1830;49.000;12.074;2023-08-01T15:22:13;19.70;99.90
3628;DHT22;1830;49.000;12.074;2023-08-01T15:24:40;19.70;99.90
3628;DHT22;1830;49.000;12.074;2023-08-01T15:27:07;19.80;99.90
3628;DHT22;1830;49.000;12.074;2023-08-01T15:29:34;19.90;99.90
3628;DHT22;1830;49.000;12.074;2023-08-01T15:32:01;19.90;99.90
3628;DHT22;1830;49.000;12.074;2023-08-01T15:34:29;20.00;99.90
3628;DHT22;1830;49.000;12.074;2023-08-01T15:36:56;20.00;99.90
3628;DHT22;1830;49.000;12.074;2023-08-01T15:39:23;19.90;99.90
3628;DHT22;1830;49.000;12.074;2023-08-01T15:41:49;20.00;99.90
3628;DHT22;1830;49.000;12.074;2023-08-01T15:44:16;20.10;99.90
3628;DHT22;1830;49.000;12.074;2023-08-01T15:46:43;20.30;99.90
3628;DHT22;1830;49.000;12.074;2023-08-01T15:49:10;20.40;99.90